Time;durP1;ratioP1;P1;durP2;ratioP2;P2;SDS_P1;SDS_P2;PMS_P1;PMS_P2;Temp;Humidity;BMP_temperature;BMP_pressure;BME280_temperature;BME280_humidity;BME280_pressure;Samples;Min_cycle;Max_cycle;Signal;HPM_P1;HPM_P2
2022/05/17 00:00:17;;;;;;;0.57;0.57;;;;;;;19.22;50.67;101445.53;5181743;28;20069;-79
2022/05/17 00:03:10;;;;;;;0.63;0.63;;;;;;;19.21;50.75;101443.81;5190181;28;20613;-80
2022/05/17 00:05:44;;;;;;;0.55;0.55;;;;;;;19.17;50.69;101446.63;5149864;28;20044;-79
2022/05/17 00:08:16;;;;;;;0.52;0.52;;;;;;;19.16;50.83;101444.06;5202689;28;20033;-79
2022/05/17 00:10:47;;;;;;;0.38;0.38;;;;;;;19.09;50.88;101446.16;5201717;28;20053;-80
2022/05/17 00:13:17;;;;;;;0.60;0.60;;;;;;;19.04;51.06;101453.53;5173426;28;20037;-80
2022/05/17 00:15:51;;;;;;;1.85;1.50;;;;;;;19.13;51.56;101442.41;5206537;28;20108;-78
2022/05/17 00:18:23;;;;;;;1.45;0.85;;;;;;;19.07;51.17;101441.88;5185781;28;20040;-80
2022/05/17 00:20:57;;;;;;;0.52;0.52;;;;;;;19.02;51.29;101439.44;5178145;28;20126;-79
2022/05/17 00:23:28;;;;;;;1.65;1.10;;;;;;;18.99;51.30;101428.97;5198897;28;20170;-79
2022/05/17 00:25:59;;;;;;;0.47;0.47;;;;;;;18.93;51.28;101430.13;5159649;28;20161;-80
2022/05/17 00:28:30;;;;;;;3.10;0.88;;;;;;;18.85;51.42;101430.50;5185887;28;20717;-78
2022/05/17 00:31:00;;;;;;;0.68;0.68;;;;;;;18.85;51.14;101430.50;5196321;28;20052;-80
2022/05/17 00:33:31;;;;;;;0.68;0.68;;;;;;;18.83;51.56;101435.03;5193673;28;20619;-78
2022/05/17 00:36:02;;;;;;;0.98;0.88;;;;;;;18.81;51.31;101422.75;5182189;28;20038;-78
2022/05/17 00:38:33;;;;;;;0.40;0.40;;;;;;;18.83;51.59;101428.88;5193045;28;20076;-82
2022/05/17 00:41:03;;;;;;;0.50;0.50;;;;;;;18.85;52.02;101433.16;5176369;28;20061;-80
2022/05/17 00:47:00;;;;;;;0.32;0.32;;;;;;;18.70;51.69;101431.28;5184878;28;20052;-79
2022/05/17 00:49:39;;;;;;;1.20;1.08;;;;;;;18.68;51.93;101435.81;5163445;28;20037;-78
2022/05/17 00:52:19;;;;;;;0.50;0.50;;;;;;;18.66;51.88;101437.66;5195316;28;20029;-80
2022/05/17 00:54:52;;;;;;;2.35;0.93;;;;;;;18.60;52.01;101430.84;5188134;28;20038;-79
2022/05/17 00:57:47;;;;;;;0.63;0.63;;;;;;;18.62;52.26;101436.13;5160825;28;20061;-78
2022/05/17 01:00:19;;;;;;;0.55;0.55;;;;;;;18.62;52.35;101430.81;5180213;28;20410;-81
2022/05/17 01:02:59;;;;;;;0.77;0.77;;;;;;;18.51;52.06;101440.16;5173768;28;20036;-81
2022/05/17 01:05:31;;;;;;;0.50;0.50;;;;;;;18.46;51.87;101436.88;5181287;28;20037;-79
2022/05/17 01:08:03;;;;;;;0.73;0.73;;;;;;;18.44;52.51;101436.09;5188398;28;20406;-80
2022/05/17 01:10:34;;;;;;;1.00;0.75;;;;;;;18.44;52.41;101433.44;5178934;28;20048;-78
2022/05/17 01:15:53;;;;;;;0.65;0.60;;;;;;;18.41;52.55;101430.91;5204578;28;20566;-79
2022/05/17 01:18:24;;;;;;;0.75;0.75;;;;;;;18.33;52.26;101431.31;5162991;28;20037;-78
2022/05/17 01:20:59;;;;;;;1.50;0.90;;;;;;;18.32;52.84;101426.03;5192228;28;20068;-79
2022/05/17 01:23:30;;;;;;;0.77;0.77;;;;;;;18.31;52.70;101432.28;5193318;28;20033;-80
2022/05/17 01:26:02;;;;;;;0.52;0.52;;;;;;;18.27;52.71;101428.06;5175429;28;20504;-81
2022/05/17 01:28:36;;;;;;;0.73;0.70;;;;;;;18.22;52.65;101434.44;5194030;28;20108;-80
2022/05/17 01:31:07;;;;;;;0.30;0.30;;;;;;;18.21;52.78;101432.75;5191480;28;20297;-78
2022/05/17 01:33:39;;;;;;;1.55;1.35;;;;;;;18.21;52.91;101432.75;5175996;28;20033;-79
2022/05/17 01:36:12;;;;;;;1.10;0.93;;;;;;;18.15;52.65;101432.19;5196743;28;20047;-79
2022/05/17 01:38:50;;;;;;;0.88;0.88;;;;;;;18.05;52.71;101437.91;5193481;28;20032;-78
2022/05/17 01:41:21;;;;;;;0.20;0.20;;;;;;;18.07;53.00;101435.19;5171637;28;20026;-78
2022/05/17 01:43:55;;;;;;;0.50;0.50;;;;;;;18.05;53.05;101437.91;5205017;28;20064;-78
2022/05/17 01:46:26;;;;;;;0.60;0.60;;;;;;;17.99;52.77;101432.03;5192165;28;20032;-78
2022/05/17 01:48:59;;;;;;;0.82;0.73;;;;;;;17.96;52.90;101430.38;5189261;28;20060;-78
2022/05/17 01:51:30;;;;;;;1.17;0.43;;;;;;;17.97;52.88;101428.63;5197537;28;20057;-79
2022/05/17 01:54:01;;;;;;;3.72;1.30;;;;;;;17.95;52.91;101425.97;5192852;28;20067;-79
2022/05/17 01:56:33;;;;;;;0.50;0.50;;;;;;;17.91;53.10;101427.06;5198707;28;20571;-80
2022/05/17 01:59:03;;;;;;;1.50;1.27;;;;;;;17.88;52.91;101413.94;5185695;28;20127;-79
2022/05/17 02:01:34;;;;;;;0.73;0.73;;;;;;;17.86;53.19;101413.13;5161309;28;20050;-81
2022/05/17 02:04:07;;;;;;;0.75;0.75;;;;;;;17.86;53.12;101423.75;5179086;28;20047;-81
2022/05/17 02:06:38;;;;;;;4.82;0.70;;;;;;;17.80;53.13;101416.94;5210065;28;20033;-79
2022/05/17 02:09:08;;;;;;;0.30;0.30;;;;;;;17.80;53.30;101416.06;5242105;28;20047;-79
2022/05/17 02:11:40;;;;;;;0.65;0.65;;;;;;;17.76;53.29;101416.25;5188715;28;20026;-79
2022/05/17 02:14:11;;;;;;;1.00;0.60;;;;;;;17.72;53.10;101413.78;5193313;28;20109;-80
2022/05/17 02:16:41;;;;;;;2.17;1.80;;;;;;;17.69;53.04;101421.88;5196677;28;20100;-79
2022/05/17 02:19:12;;;;;;;0.40;0.40;;;;;;;17.70;53.21;101429.75;5199611;28;20042;-81
2022/05/17 02:21:42;;;;;;;0.57;0.43;;;;;;;17.74;53.70;101430.47;5176385;28;20022;-80
2022/05/17 02:24:13;;;;;;;3.50;2.28;;;;;;;17.72;53.47;101429.72;5193532;28;20043;-83
2022/05/17 02:26:44;;;;;;;0.50;0.50;;;;;;;17.66;53.80;101424.66;5176030;28;20037;-81
2022/05/17 02:29:15;;;;;;;0.20;0.20;;;;;;;17.65;53.79;101423.81;5192757;28;20045;-80
2022/05/17 02:31:45;;;;;;;0.50;0.43;;;;;;;17.64;54.00;101426.56;5206365;28;20038;-80
2022/05/17 02:34:16;;;;;;;0.50;0.50;;;;;;;17.57;53.85;101426.81;5179384;28;20036;-79
2022/05/17 02:36:47;;;;;;;0.47;0.47;;;;;;;17.53;53.49;101429.66;5193686;28;20108;-80
2022/05/17 02:39:17;;;;;;;0.50;0.50;;;;;;;17.50;53.49;101430.66;5204129;28;20128;-81
2022/05/17 02:41:48;;;;;;;0.65;0.65;;;;;;;17.52;54.05;101434.13;5209397;28;20416;-81
2022/05/17 02:44:18;;;;;;;0.55;0.55;;;;;;;17.49;53.88;101428.09;5213285;28;20403;-79
2022/05/17 02:46:49;;;;;;;0.20;0.20;;;;;;;17.48;54.20;101426.38;5194106;28;20041;-79
2022/05/17 02:49:19;;;;;;;0.75;0.75;;;;;;;17.39;53.45;101438.28;5164844;28;20119;-80
2022/05/17 02:51:49;;;;;;;0.40;0.40;;;;;;;17.39;54.29;101441.78;5193823;28;20109;-80
2022/05/17 02:54:21;;;;;;;0.28;0.28;;;;;;;17.35;53.74;101436.66;5194327;28;20706;-81
2022/05/17 02:56:52;;;;;;;1.20;1.10;;;;;;;17.35;53.84;101431.38;5170157;28;20084;-79
2022/05/17 02:59:22;;;;;;;0.52;0.52;;;;;;;17.35;54.07;101436.66;5201999;28;20057;-81
2022/05/17 03:01:53;;;;;;;0.47;0.47;;;;;;;17.29;53.82;101436.03;5198836;28;20191;-78
2022/05/17 03:04:23;;;;;;;0.50;0.50;;;;;;;17.24;53.94;101435.34;5195635;28;20037;-81
2022/05/17 03:06:54;;;;;;;0.20;0.20;;;;;;;17.26;54.22;101437.94;5186543;28;20040;-79
2022/05/17 03:09:25;;;;;;;1.00;0.90;;;;;;;17.23;54.02;101443.38;5191860;28;20061;-80
2022/05/17 03:11:58;;;;;;;0.30;0.30;;;;;;;17.24;54.25;101445.94;5191535;28;20029;-79
2022/05/17 03:14:29;;;;;;;0.52;0.52;;;;;;;17.27;54.47;101455.59;5180147;28;20037;-80
2022/05/17 03:17:00;;;;;;;0.43;0.43;;;;;;;17.27;54.58;101447.63;5211527;28;20041;-81
2022/05/17 03:19:30;;;;;;;1.02;1.02;;;;;;;17.22;54.48;101446.94;5175150;28;20132;-79
2022/05/17 03:22:01;;;;;;;0.38;0.38;;;;;;;17.17;54.50;101449.78;5190061;28;20040;-79
2022/05/17 03:24:31;;;;;;;0.57;0.57;;;;;;;17.13;54.41;101458.81;5177625;28;20033;-78
2022/05/17 03:27:05;;;;;;;0.43;0.43;;;;;;;17.11;54.35;101453.56;5179552;28;20379;-82
2022/05/17 03:29:40;;;;;;;0.75;0.75;;;;;;;17.07;53.84;101452.00;5195505;28;20037;-79
2022/05/17 03:32:11;;;;;;;2.05;1.42;;;;;;;17.07;54.49;101453.75;5194179;28;20137;-80
2022/05/17 03:34:41;;;;;;;0.50;0.50;;;;;;;17.09;54.51;101462.53;5194424;28;20041;-82
2022/05/17 03:37:12;;;;;;;0.32;0.32;;;;;;;17.10;55.05;101459.81;5204857;28;20032;-80
2022/05/17 03:39:46;;;;;;;0.63;0.63;;;;;;;17.05;54.40;101469.75;5179644;28;20037;-80
2022/05/17 03:42:16;;;;;;;0.32;0.32;;;;;;;17.04;54.67;101472.47;5176487;28;20117;-80
2022/05/17 03:44:49;;;;;;;0.57;0.57;;;;;;;17.05;54.85;101480.34;5197799;28;20051;-79
2022/05/17 03:47:19;;;;;;;0.38;0.38;;;;;;;17.03;54.67;101476.03;5173937;28;20029;-79
2022/05/17 03:49:50;;;;;;;0.68;0.52;;;;;;;16.99;54.90;101472.66;5187668;28;20049;-80
2022/05/17 03:52:31;;;;;;;1.48;1.17;;;;;;;17.02;54.77;101469.00;5193339;28;20030;-80
2022/05/17 03:55:04;;;;;;;1.30;1.27;;;;;;;17.02;55.19;101463.72;5193623;28;20037;-79
2022/05/17 03:57:34;;;;;;;;;;;;;;;17.01;55.13;101465.53;5197383;28;20051;-80
2022/05/17 04:00:08;;;;;;;0.40;0.40;;;;;;;16.99;54.92;101468.22;5188187;28;19913;-80
2022/05/17 04:02:39;;;;;;;0.70;0.70;;;;;;;17.03;55.33;101470.75;5197418;28;20026;-82
2022/05/17 04:05:10;;;;;;;0.47;0.47;;;;;;;17.04;55.57;101475.13;5188203;28;20092;-80
2022/05/17 04:07:41;;;;;;;1.00;0.57;;;;;;;17.05;55.49;101472.41;5227326;28;20093;-79
2022/05/17 04:10:15;;;;;;;0.88;0.88;;;;;;;17.05;55.56;101474.19;5236466;28;20070;-79
2022/05/17 04:12:49;;;;;;;1.17;0.98;;;;;;;17.06;55.75;101473.28;5202643;28;20033;-80
2022/05/17 04:15:22;;;;;;;0.75;0.75;;;;;;;17.03;55.54;101468.09;5167768;28;20125;-82
2022/05/17 04:17:54;;;;;;;0.30;0.30;;;;;;;17.08;55.62;101468.75;5211080;28;20040;-80
2022/05/17 04:20:26;;;;;;;1.35;0.65;;;;;;;17.07;55.62;101477.63;5199128;28;20116;-80
2022/05/17 04:23:00;;;;;;;1.88;1.33;;;;;;;17.07;55.56;101472.31;5166929;28;20034;-80
2022/05/17 04:25:30;;;;;;;0.52;0.52;;;;;;;17.07;55.65;101472.31;5178299;28;20927;-80
2022/05/17 04:28:01;;;;;;;1.50;1.27;;;;;;;17.07;55.24;101474.97;5195991;28;20021;-80
2022/05/17 04:30:32;;;;;;;0.43;0.43;;;;;;;17.08;55.78;101468.75;5198314;28;20041;-80
2022/05/17 04:33:02;;;;;;;1.15;1.15;;;;;;;17.09;55.94;101467.81;5182013;28;20029;-80
2022/05/17 04:35:33;;;;;;;0.30;0.30;;;;;;;17.10;55.63;101464.25;5191550;28;20540;-81
2022/05/17 04:38:03;;;;;;;0.75;0.75;;;;;;;17.07;55.53;101480.28;5203134;28;20145;-80
2022/05/17 04:40:35;;;;;;;0.73;0.73;;;;;;;17.12;55.75;101473.00;5158191;28;20042;-80
2022/05/17 04:43:05;;;;;;;0.98;0.98;;;;;;;17.14;56.10;101469.34;5185682;28;20036;-78
2022/05/17 04:45:37;;;;;;;0.85;0.85;;;;;;;17.18;55.85;101474.53;5192757;28;20240;-78
2022/05/17 04:48:10;;;;;;;0.63;0.63;;;;;;;17.14;55.72;101466.72;5191602;28;20094;-79
2022/05/17 04:50:41;;;;;;;0.43;0.43;;;;;;;17.14;55.92;101471.16;5175655;28;20663;-79
2022/05/17 04:53:11;;;;;;;1.80;1.17;;;;;;;17.19;55.64;101474.47;5190804;28;20112;-79
2022/05/17 04:55:42;;;;;;;0.25;0.25;;;;;;;17.23;56.18;101481.34;5191988;28;20046;-79
2022/05/17 04:58:12;;;;;;;0.30;0.30;;;;;;;17.26;56.12;101481.22;5181930;28;20025;-81
2022/05/17 05:00:43;;;;;;;1.38;0.52;;;;;;;17.27;56.10;101476.81;5186095;28;20037;-80
2022/05/17 05:03:14;;;;;;;1.58;1.48;;;;;;;17.25;55.77;101474.19;5176070;28;20052;-80
2022/05/17 05:05:47;;;;;;;0.35;0.35;;;;;;;17.29;56.08;101475.81;5180453;28;20033;-79
2022/05/17 05:08:18;;;;;;;1.05;1.00;;;;;;;17.30;56.03;101471.34;5168887;28;20075;-80
2022/05/17 05:10:49;;;;;;;0.60;0.60;;;;;;;17.29;56.03;101483.75;5178473;28;20811;-79
2022/05/17 05:13:21;;;;;;;0.40;0.40;;;;;;;17.32;56.11;101490.72;5198134;28;20034;-80
2022/05/17 05:15:54;;;;;;;0.47;0.47;;;;;;;17.41;56.95;101500.06;5194033;28;20049;-79
2022/05/17 05:18:27;;;;;;;0.87;0.87;;;;;;;17.43;56.50;101503.50;5192380;28;20056;-79
2022/05/17 05:21:04;;;;;;;;;;;;;;;17.46;56.97;101498.94;5194391;28;20095;-79
2022/05/17 05:23:34;;;;;;;0.40;0.40;;;;;;;17.48;56.47;101511.25;5210645;28;19909;-79
2022/05/17 05:26:05;;;;;;;2.17;1.20;;;;;;;17.49;56.61;101503.22;5176228;28;20412;-79
2022/05/17 05:28:37;;;;;;;0.65;0.65;;;;;;;17.53;56.58;101507.50;5179178;28;20630;-80
2022/05/17 05:31:12;;;;;;;7.78;1.00;;;;;;;17.53;56.46;101510.13;5165838;28;20455;-80
2022/05/17 05:33:43;;;;;;;1.30;1.20;;;;;;;17.52;56.46;101505.75;5176882;28;20048;-79
2022/05/17 05:36:16;;;;;;;3.83;1.60;;;;;;;17.56;56.71;101512.63;5177902;28;20093;-79
2022/05/17 05:38:48;;;;;;;0.50;0.50;;;;;;;17.58;56.47;101508.13;5178198;28;20032;-79
2022/05/17 05:41:18;;;;;;;0.45;0.45;;;;;;;17.65;56.45;101513.16;5181130;28;20060;-78
2022/05/17 05:43:49;;;;;;;0.68;0.68;;;;;;;17.64;56.47;101514.13;5198891;28;20073;-80
2022/05/17 05:46:20;;;;;;;0.30;0.30;;;;;;;17.67;56.78;101512.19;5175245;28;20533;-81
2022/05/17 05:48:50;;;;;;;11.88;1.55;;;;;;;17.70;56.88;101506.72;5158003;28;20125;-79
2022/05/17 05:51:21;;;;;;;0.55;0.55;;;;;;;17.69;56.67;101502.34;5171639;28;20117;-82
2022/05/17 05:53:51;;;;;;;0.40;0.40;;;;;;;17.74;56.80;101503.03;5188052;28;20025;-79
2022/05/17 05:56:22;;;;;;;0.77;0.77;;;;;;;17.74;56.65;101503.03;5200965;28;20116;-79
2022/05/17 05:58:53;;;;;;;0.38;0.38;;;;;;;17.80;56.61;101501.00;5175478;28;20038;-82
2022/05/17 06:01:24;;;;;;;0.65;0.65;;;;;;;17.82;56.46;101500.00;5191905;28;20060;-82
2022/05/17 06:03:54;;;;;;;1.30;0.60;;;;;;;17.87;56.74;101503.34;5180235;28;20115;-81
2022/05/17 06:06:25;;;;;;;0.52;0.52;;;;;;;17.90;56.91;101500.53;5197276;28;20029;-82
2022/05/17 06:08:55;;;;;;;0.85;0.73;;;;;;;17.92;57.23;101501.31;5228424;28;20029;-80
2022/05/17 06:11:26;;;;;;;0.60;0.60;;;;;;;18.00;57.27;101510.75;5218034;28;20505;-80
2022/05/17 06:13:56;;;;;;;0.10;0.10;;;;;;;17.94;58.19;101507.44;5188196;28;20041;-80
2022/05/17 06:16:27;;;;;;;0.50;0.50;;;;;;;17.99;57.64;101506.38;5197405;28;20033;-81
2022/05/17 06:18:57;;;;;;;4.47;0.60;;;;;;;18.04;57.23;101509.69;5194264;28;20400;-80
2022/05/17 06:21:28;;;;;;;0.70;0.70;;;;;;;18.06;57.20;101510.47;5175536;28;20030;-80
2022/05/17 06:23:59;;;;;;;0.93;0.77;;;;;;;18.06;57.04;101508.69;5185049;28;20032;-81
2022/05/17 06:26:29;;;;;;;5.53;1.10;;;;;;;18.08;56.88;101512.16;5199168;28;20059;-81
2022/05/17 06:29:03;;;;;;;0.30;0.30;;;;;;;18.12;56.96;101512.88;5187049;28;20163;-81
2022/05/17 06:31:34;;;;;;;3.35;1.20;;;;;;;18.18;56.99;101511.72;5156174;28;20081;-82
2022/05/17 06:34:05;;;;;;;0.63;0.63;;;;;;;18.18;56.85;101512.56;5175387;28;20068;-80
2022/05/17 06:36:35;;;;;;;0.82;0.82;;;;;;;18.23;56.76;101517.66;5168597;28;20481;-81
2022/05/17 06:39:11;;;;;;;2.58;1.63;;;;;;;18.28;56.78;101513.00;5200096;28;20042;-83
2022/05/17 06:41:41;;;;;;;1.80;1.70;;;;;;;18.31;56.89;101520.81;5198711;28;20049;-81
2022/05/17 06:44:11;;;;;;;0.40;0.40;;;;;;;18.37;56.94;101517.88;5195816;28;20034;-79
2022/05/17 06:46:42;;;;;;;1.67;1.48;;;;;;;18.32;58.82;101519.00;5196711;28;20037;-81
2022/05/17 06:49:12;;;;;;;1.52;1.40;;;;;;;18.39;57.35;101520.44;5187953;28;20030;-80
2022/05/17 06:51:43;;;;;;;0.60;0.60;;;;;;;18.47;57.28;101520.09;5196952;28;20129;-80
2022/05/17 06:54:14;;;;;;;0.93;0.70;;;;;;;18.54;57.07;101514.44;5182100;28;20094;-80
2022/05/17 06:56:45;;;;;;;1.13;1.05;;;;;;;18.55;58.45;101520.59;5187308;28;20026;-83
2022/05/17 06:59:15;;;;;;;1.35;1.23;;;;;;;18.41;64.11;101518.59;5204863;28;20183;-80
2022/05/17 07:01:49;;;;;;;4.80;1.40;;;;;;;18.55;62.55;101524.09;5213594;28;20444;-83
2022/05/17 07:04:22;;;;;;;1.15;1.05;;;;;;;18.56;60.59;101540.91;5195017;28;20034;-83
2022/05/17 07:06:55;;;;;;;0.40;0.40;;;;;;;18.67;61.15;101530.66;5206099;28;20048;-80
2022/05/17 07:09:26;;;;;;;;;;;;;;;18.62;61.02;101532.66;5181890;28;20720;-80
2022/05/17 07:14:45;;;;;;;0.68;0.68;;;;;;;18.81;59.08;101521.13;5207319;28;20074;-81
2022/05/17 07:17:20;;;;;;;0.65;0.65;;;;;;;18.86;58.49;101529.72;5183218;28;20048;-82
2022/05/17 07:19:51;;;;;;;0.70;0.63;;;;;;;18.92;58.19;101528.56;5183553;28;20052;-82
2022/05/17 07:22:22;;;;;;;0.55;0.50;;;;;;;19.03;58.31;101528.94;5191462;28;20025;-80
2022/05/17 07:24:53;;;;;;;2.80;1.58;;;;;;;19.19;59.37;101544.97;5193923;28;20081;-81
2022/05/17 07:27:23;;;;;;;0.43;0.43;;;;;;;19.12;58.67;101541.78;5174922;28;20061;-80
2022/05/17 07:29:54;;;;;;;0.82;0.75;;;;;;;19.12;58.13;101539.13;5173044;28;20778;-80
2022/05/17 07:32:24;;;;;;;0.47;0.47;;;;;;;19.26;57.92;101545.53;5201051;28;20029;-78
2022/05/17 07:34:55;;;;;;;7.38;1.23;;;;;;;19.25;58.03;101555.31;5180844;28;20045;-78
2022/05/17 07:37:25;;;;;;;0.47;0.47;;;;;;;19.24;57.99;101552.72;5209137;28;20022;-78
2022/05/17 07:39:56;;;;;;;0.40;0.40;;;;;;;19.29;59.21;101548.06;5188210;28;20141;-78
2022/05/17 07:42:31;;;;;;;1.08;1.08;;;;;;;19.31;58.34;101548.81;5200519;28;20587;-78
2022/05/17 07:45:02;;;;;;;0.88;0.80;;;;;;;19.35;58.54;101553.06;5170634;28;20459;-78
2022/05/17 07:47:33;;;;;;;1.08;1.02;;;;;;;19.40;58.69;101548.34;5173524;28;20192;-77
2022/05/17 07:50:05;;;;;;;2.60;1.30;;;;;;;19.46;58.29;101555.16;5176343;28;20117;-78
2022/05/17 07:52:35;;;;;;;0.30;0.30;;;;;;;19.50;58.68;101549.59;5176873;28;20026;-78
2022/05/17 07:55:07;;;;;;;0.25;0.25;;;;;;;19.56;58.37;101545.75;5179783;28;20096;-78
2022/05/17 07:57:38;;;;;;;0.75;0.68;;;;;;;19.67;59.01;101553.19;5196307;28;20030;-78
2022/05/17 08:00:09;;;;;;;1.15;1.10;;;;;;;19.68;59.13;101557.56;5184461;28;20560;-79
2022/05/17 08:02:40;;;;;;;4.68;1.05;;;;;;;19.72;59.12;101561.78;5165107;28;20017;-80
2022/05/17 08:05:11;;;;;;;0.85;0.85;;;;;;;19.80;59.10;101559.56;5193798;28;20223;-79
2022/05/17 08:07:42;;;;;;;3.10;0.60;;;;;;;19.94;58.46;101558.88;5233557;28;20026;-79
2022/05/17 08:10:12;;;;;;;1.33;1.15;;;;;;;19.95;59.13;101562.41;5194093;28;20599;-81
2022/05/17 08:12:42;;;;;;;1.42;1.33;;;;;;;19.96;58.86;101561.44;5183695;28;20029;-79
2022/05/17 08:15:14;;;;;;;0.30;0.30;;;;;;;20.02;58.48;101557.59;5173583;28;20066;-80
2022/05/17 08:17:44;;;;;;;0.65;0.65;;;;;;;20.01;58.32;101556.75;5180987;28;20104;-80
2022/05/17 08:20:15;;;;;;;0.30;0.30;;;;;;;20.04;58.50;101561.91;5198620;28;20228;-80
2022/05/17 08:22:46;;;;;;;12.95;2.05;;;;;;;20.04;58.11;101561.06;5180282;28;20171;-79
2022/05/17 08:28:09;;;;;;;0.60;0.60;;;;;;;20.24;58.38;101567.97;5181284;28;20021;-79
2022/05/17 08:30:45;;;;;;;0.57;0.57;;;;;;;20.39;57.87;101567.13;5181023;28;20046;-81
2022/05/17 08:33:17;;;;;;;0.90;0.85;;;;;;;20.44;57.96;101564.19;5179901;28;20112;-80
2022/05/17 08:35:50;;;;;;;0.57;0.57;;;;;;;20.48;58.62;101564.88;5180012;28;20123;-80
2022/05/17 08:38:22;;;;;;;0.20;0.20;;;;;;;20.54;58.79;101569.88;5189691;28;20033;-80
2022/05/17 08:41:26;;;;;;;0.43;0.43;;;;;;;20.67;58.33;101565.59;5188509;28;20046;-80
2022/05/17 08:44:00;;;;;;;0.32;0.32;;;;;;;20.72;57.72;101571.50;5195832;28;20033;-80
2022/05/17 08:46:46;;;;;;;0.40;0.40;;;;;;;20.88;57.29;101565.34;5167607;28;20463;-77
2022/05/17 08:49:29;;;;;;;0.55;0.55;;;;;;;20.97;57.59;101562.13;5191201;28;20041;-77
2022/05/17 08:52:07;;;;;;;0.47;0.47;;;;;;;20.98;57.56;101563.88;5163969;28;20029;-80
2022/05/17 08:54:46;;;;;;;0.32;0.32;;;;;;;20.96;54.38;101570.25;5203074;28;20045;-81
2022/05/17 08:57:20;;;;;;;0.30;0.30;;;;;;;21.06;55.80;101572.28;5155836;28;20052;-81
2022/05/17 08:59:51;;;;;;;0.32;0.32;;;;;;;21.10;54.97;101564.13;5177984;28;20093;-80
2022/05/17 09:02:44;;;;;;;3.67;1.17;;;;;;;21.17;55.06;101560.97;5183963;28;20631;-80
2022/05/17 09:05:36;;;;;;;0.20;0.20;;;;;;;21.21;55.07;101561.66;5173460;28;20051;-81
2022/05/17 09:08:31;;;;;;;1.75;1.13;;;;;;;21.28;54.77;101563.00;5176500;28;20276;-79
2022/05/17 09:11:16;;;;;;;0.35;0.35;;;;;;;21.40;54.90;101564.13;5177049;28;20401;-79
2022/05/17 09:14:09;;;;;;;0.50;0.50;;;;;;;21.44;55.22;101559.44;5180109;28;20539;-80
2022/05/17 09:16:45;;;;;;;0.35;0.35;;;;;;;21.52;55.17;101554.50;5156842;28;20026;-80
2022/05/17 09:19:16;;;;;;;1.35;0.68;;;;;;;21.64;54.83;101550.28;5180083;28;20129;-79
2022/05/17 09:21:49;;;;;;;0.32;0.32;;;;;;;21.66;53.78;101553.69;5183294;28;20108;-79
2022/05/17 09:24:30;;;;;;;0.50;0.50;;;;;;;21.71;54.59;101548.94;5155799;28;20033;-78
2022/05/17 09:27:05;;;;;;;0.43;0.43;;;;;;;21.74;53.81;101550.56;5179897;28;20535;-79
2022/05/17 09:29:44;;;;;;;0.45;0.45;;;;;;;21.80;52.85;101544.84;5209569;28;20057;-79
2022/05/17 09:32:30;;;;;;;0.45;0.40;;;;;;;21.86;52.79;101544.44;5196093;28;20033;-79
2022/05/17 09:35:17;;;;;;;0.52;0.40;;;;;;;21.93;52.90;101545.81;5207905;28;20025;-79
2022/05/17 09:37:53;;;;;;;1.00;0.77;;;;;;;21.96;52.44;101545.59;5195212;28;20017;-80
2022/05/17 09:40:30;;;;;;;0.22;0.22;;;;;;;22.04;51.55;101547.81;5186088;28;20037;-80
2022/05/17 09:43:05;;;;;;;0.30;0.30;;;;;;;22.09;51.76;101550.19;5198839;28;20029;-80
2022/05/17 09:46:03;;;;;;;0.90;0.65;;;;;;;22.13;50.50;101551.69;5181003;28;20515;-80
2022/05/17 09:52:32;;;;;;;0.20;0.20;;;;;;;22.20;50.95;101549.50;5180011;28;20048;-78
2022/05/17 09:54:43;;;;;;;0.40;0.40;;;;;;;22.38;51.31;101536.78;5192807;28;20041;-78
2022/05/17 09:57:16;;;;;;;0.20;0.20;;;;;;;22.44;51.50;101539.06;5174310;28;20029;-79
2022/05/17 09:59:49;;;;;;;0.20;0.20;;;;;;;22.40;50.26;101538.41;5180399;28;20038;-79
2022/05/17 10:02:34;;;;;;;0.30;0.30;;;;;;;22.45;51.04;101541.69;5176790;28;20057;-79
2022/05/17 10:05:16;;;;;;;0.30;0.30;;;;;;;22.56;51.10;101535.63;5204286;28;20501;-79
2022/05/17 10:08:00;;;;;;;0.20;0.20;;;;;;;22.54;50.56;101534.84;5197269;28;20264;-79
2022/05/17 10:10:46;;;;;;;0.30;0.30;;;;;;;22.56;49.95;101532.09;5201589;28;20030;-80
2022/05/17 10:13:23;;;;;;;0.60;0.40;;;;;;;22.55;50.33;101527.72;5202230;28;20214;-81
2022/05/17 10:16:00;;;;;;;0.70;0.55;;;;;;;22.62;50.77;101532.53;5191538;28;20259;-81
2022/05/17 10:18:38;;;;;;;0.30;0.30;;;;;;;22.66;50.86;101521.66;5216836;28;20128;-81
2022/05/17 10:21:23;;;;;;;0.80;0.50;;;;;;;22.65;49.54;101520.78;5183583;28;20118;-80
2022/05/17 10:24:08;;;;;;;0.55;0.55;;;;;;;22.72;50.13;101522.13;5188511;28;20075;-80
2022/05/17 10:26:43;;;;;;;0.30;0.30;;;;;;;22.74;49.36;101516.66;5201411;28;20041;-81
2022/05/17 10:29:36;;;;;;;0.20;0.20;;;;;;;22.74;48.66;101519.34;5194206;28;20039;-81
2022/05/17 10:32:37;;;;;;;0.22;0.22;;;;;;;22.78;49.43;101519.03;5178143;28;20052;-79
2022/05/17 10:35:17;;;;;;;0.35;0.35;;;;;;;22.87;49.45;101512.19;5181311;28;20034;-80
2022/05/17 10:37:53;;;;;;;0.43;0.43;;;;;;;22.90;49.26;101511.13;5181911;28;20037;-79
2022/05/17 10:40:29;;;;;;;0.52;0.52;;;;;;;22.98;49.24;101507.94;5199257;28;20080;-80
2022/05/17 10:43:03;;;;;;;0.60;0.40;;;;;;;23.01;49.65;101505.06;5203357;28;20049;-80
2022/05/17 10:45:35;;;;;;;0.32;0.32;;;;;;;23.07;49.88;101508.19;5184151;28;20493;-80
2022/05/17 10:48:11;;;;;;;;;;;;;;;23.13;49.01;101503.38;5168147;28;20041;-80
2022/05/17 10:50:53;;;;;;;0.20;0.20;;;;;;;23.15;49.45;101501.44;5182515;28;20043;-80
2022/05/17 10:53:43;;;;;;;0.40;0.40;;;;;;;23.17;48.83;101499.53;5169348;28;21194;-80
2022/05/17 10:56:52;;;;;;;0.30;0.30;;;;;;;23.21;49.10;101501.06;5198450;28;20061;-80
2022/05/17 10:59:37;;;;;;;0.20;0.20;;;;;;;23.31;48.85;101495.94;5185008;28;20040;-81
2022/05/17 11:02:22;;;;;;;0.95;0.80;;;;;;;23.35;48.99;101492.06;5186379;28;20087;-80
2022/05/17 11:05:12;;;;;;;0.40;0.40;;;;;;;23.37;49.11;101492.84;5182071;28;20087;-78
2022/05/17 11:08:20;;;;;;;0.28;0.28;;;;;;;23.45;48.94;101484.28;5202400;28;20156;-80
2022/05/17 11:10:53;;;;;;;0.57;0.32;;;;;;;23.46;47.79;101489.50;5185070;28;20065;-82
2022/05/17 11:13:34;;;;;;;1.40;1.30;;;;;;;23.44;48.01;101479.88;5181836;28;20033;-81
2022/05/17 11:16:13;;;;;;;1.05;1.05;;;;;;;23.46;48.29;101480.63;5198301;28;20045;-80
2022/05/17 11:19:20;;;;;;;0.28;0.28;;;;;;;23.47;48.45;101480.53;5185074;28;20025;-81
2022/05/17 11:22:12;;;;;;;0.80;0.80;;;;;;;23.50;48.00;101480.31;5183554;28;20413;-80
2022/05/17 11:24:55;;;;;;;0.30;0.30;;;;;;;23.49;47.74;101478.59;5188626;28;20427;-80
2022/05/17 11:27:32;;;;;;;;;;;;;;;23.52;47.89;101467.66;5180938;28;20033;-79
2022/05/17 11:30:30;;;;;;;0.10;0.10;;;;;;;23.62;47.38;101467.88;5178907;28;20416;-80
2022/05/17 11:33:12;;;;;;;0.30;0.30;;;;;;;23.65;48.24;101470.31;5183181;28;20074;-81
2022/05/17 11:35:53;;;;;;;0.85;0.85;;;;;;;23.75;48.21;101459.84;5181679;28;20049;-80
2022/05/17 11:38:36;;;;;;;0.35;0.35;;;;;;;23.81;47.93;101458.50;5209936;28;20037;-81
2022/05/17 11:41:25;;;;;;;;;;;;;;;23.84;47.54;101463.66;5162285;28;20167;-80
2022/05/17 11:44:19;;;;;;;0.30;0.30;;;;;;;23.98;47.50;101462.72;5182342;28;19979;-79
2022/05/17 11:46:54;;;;;;;0.28;0.28;;;;;;;24.00;47.35;101460.78;5199651;28;20026;-79
2022/05/17 11:49:29;;;;;;;1.05;0.95;;;;;;;24.03;47.64;101456.06;5180965;28;20059;-80
2022/05/17 11:52:00;;;;;;;0.20;0.20;;;;;;;24.17;47.63;101446.97;5183555;28;20022;-80
2022/05/17 11:54:45;;;;;;;0.55;0.55;;;;;;;24.21;47.88;101444.94;5184196;28;20099;-79
2022/05/17 11:57:15;;;;;;;0.35;0.35;;;;;;;24.27;47.61;101441.81;5178851;28;20053;-80
2022/05/17 11:59:55;;;;;;;0.30;0.30;;;;;;;24.33;46.97;101438.66;5180566;28;20505;-80
2022/05/17 12:02:47;;;;;;;0.38;0.38;;;;;;;24.40;47.09;101441.75;5181410;28;20116;-79
2022/05/17 12:05:37;;;;;;;0.30;0.30;;;;;;;24.42;47.13;101439.78;5178681;28;20098;-80
2022/05/17 12:08:26;;;;;;;0.50;0.50;;;;;;;24.50;47.15;101434.72;5181552;28;20030;-79
2022/05/17 12:11:12;;;;;;;0.52;0.52;;;;;;;24.60;46.63;101432.22;5189870;28;20061;-80
2022/05/17 12:13:52;;;;;;;0.32;0.32;;;;;;;24.60;46.15;101424.16;5183632;28;20030;-80
2022/05/17 12:16:26;;;;;;;0.20;0.20;;;;;;;24.74;46.88;101425.84;5199913;28;20077;-80